📊 Raw Sensor Data
Showing records 51551 to 51575 of 85,149 total
| ID | Distance (ft) | Battery V | Battery A | Int Temp (°F) | Int Humid (%) | Ext Temp (°F) | Solar V | RSSI | SNR | Time Stamp |
|---|---|---|---|---|---|---|---|---|---|---|
| 33611 | -- | 3.92 | -5 | 52 | 41 | 55 | 0.00 | -75 | 8 | 02/27/2025 08:00 PM |
| 33610 | 14.9 | 3.93 | -5 | 53 | 41 | 55 | 0.00 | -75 | 8 | 02/27/2025 07:45 PM |
| 33609 | 14.8 | 3.92 | -5 | 54 | 41 | 55 | 0.00 | -75 | 8 | 02/27/2025 07:30 PM |
| 33608 | 14.9 | 3.92 | -5 | 56 | 41 | 56 | 0.00 | -75 | 8 | 02/27/2025 07:15 PM |
| 33607 | 14.8 | 3.93 | -5 | 58 | 41 | 60 | 0.00 | -75 | 8 | 02/27/2025 07:00 PM |
| 33606 | 14.8 | 3.98 | -5 | 59 | 42 | 60 | 0.00 | -75 | 8 | 02/27/2025 06:45 PM |
| 33605 | 14.9 | 3.98 | -5 | 60 | 42 | 60 | 0.00 | -75 | 8 | 02/27/2025 06:30 PM |
| 33604 | 14.9 | 3.98 | -5 | 62 | 42 | 63 | 0.40 | -75 | 7 | 02/27/2025 06:15 PM |
| 33603 | 14.9 | 3.98 | -10 | 65 | 42 | 65 | 4.10 | -75 | 8 | 02/27/2025 06:00 PM |
| 33602 | 14.9 | 4.01 | 8 | 68 | 40 | 66 | 4.50 | -75 | 8 | 02/27/2025 05:45 PM |
| 33601 | 14.8 | 4.01 | 23 | 68 | 42 | 67 | 4.50 | -75 | 8 | 02/27/2025 05:30 PM |
| 33600 | 14.9 | 4.06 | 12 | 69 | 42 | 67 | 4.50 | -75 | 7 | 02/27/2025 05:15 PM |
| 33599 | 14.9 | 4.00 | 29 | 72 | 41 | 68 | 4.60 | -75 | 8 | 02/27/2025 05:00 PM |
| 33598 | 14.9 | 4.05 | 46 | 74 | 40 | 70 | 4.50 | -75 | 8 | 02/27/2025 04:45 PM |
| 33597 | 14.9 | 4.10 | 86 | 75 | 40 | 73 | 4.50 | -75 | 8 | 02/27/2025 04:30 PM |
| 33596 | 14.9 | 3.95 | 8 | 76 | 41 | 70 | 5.10 | -75 | 7 | 02/27/2025 04:15 PM |
| 33595 | 14.9 | 3.95 | 0 | 78 | 40 | 71 | 5.10 | -75 | 7 | 02/27/2025 04:00 PM |
| 33594 | 14.9 | 3.95 | 8 | 81 | 38 | 71 | 5.10 | -75 | 8 | 02/27/2025 03:45 PM |
| 33593 | 15.0 | 3.95 | 0 | 83 | 37 | 73 | 5.10 | -75 | 7 | 02/27/2025 03:30 PM |
| 33592 | 15.0 | 3.95 | 0 | 82 | 37 | 73 | 5.10 | -75 | 8 | 02/27/2025 03:15 PM |
| 33591 | 14.9 | 3.95 | 0 | 78 | 39 | 71 | 5.10 | -75 | 8 | 02/27/2025 03:00 PM |
| 33590 | 14.9 | 3.95 | 0 | 79 | 38 | 71 | 5.10 | -75 | 7 | 02/27/2025 02:45 PM |
| 33589 | 14.9 | 3.97 | 8 | 79 | 38 | 71 | 5.10 | -75 | 7 | 02/27/2025 02:30 PM |
| 33588 | 14.9 | 4.10 | 8 | 80 | 38 | 74 | 5.10 | -75 | 8 | 02/27/2025 02:15 PM |
| 33587 | 15.0 | 4.12 | 0 | 81 | 37 | 70 | 5.10 | -75 | 8 | 02/27/2025 02:00 PM |